sensor_id;sensor_type;location;lat;lon;timestamp;temperature;humidity
37518;DHT22;23366;52.498;13.446;2023-02-13T00:02:24;8.50;99.90
37518;DHT22;23366;52.498;13.446;2023-02-13T00:04:50;8.50;99.90
37518;DHT22;23366;52.498;13.446;2023-02-13T00:07:16;8.50;99.90
37518;DHT22;23366;52.498;13.446;2023-02-13T00:09:41;8.50;99.90
37518;DHT22;23366;52.498;13.446;2023-02-13T00:12:07;8.50;99.90
37518;DHT22;23366;52.498;13.446;2023-02-13T00:14:37;8.50;99.90
37518;DHT22;23366;52.498;13.446;2023-02-13T00:17:04;8.50;99.90
37518;DHT22;23366;52.498;13.446;2023-02-13T00:19:29;8.50;99.90
37518;DHT22;23366;52.498;13.446;2023-02-13T00:21:55;8.50;99.90
37518;DHT22;23366;52.498;13.446;2023-02-13T00:24:20;8.40;99.90
37518;DHT22;23366;52.498;13.446;2023-02-13T00:26:46;8.50;99.90
37518;DHT22;23366;52.498;13.446;2023-02-13T00:29:11;8.50;99.90
37518;DHT22;23366;52.498;13.446;2023-02-13T00:31:37;8.40;99.90
37518;DHT22;23366;52.498;13.446;2023-02-13T00:34:03;8.40;99.90
37518;DHT22;23366;52.498;13.446;2023-02-13T00:36:29;8.40;99.90
37518;DHT22;23366;52.498;13.446;2023-02-13T00:38:55;8.40;99.90
37518;DHT22;23366;52.498;13.446;2023-02-13T00:41:21;8.40;99.90
37518;DHT22;23366;52.498;13.446;2023-02-13T00:43:47;8.40;99.90
37518;DHT22;23366;52.498;13.446;2023-02-13T00:46:13;8.40;99.90
37518;DHT22;23366;52.498;13.446;2023-02-13T00:48:39;8.40;99.90
37518;DHT22;23366;52.498;13.446;2023-02-13T00:51:06;8.40;99.90
37518;DHT22;23366;52.498;13.446;2023-02-13T00:53:32;8.40;99.90
37518;DHT22;23366;52.498;13.446;2023-02-13T00:55:58;8.40;99.90
37518;DHT22;23366;52.498;13.446;2023-02-13T00:58:24;8.30;99.90
37518;DHT22;23366;52.498;13.446;2023-02-13T01:00:51;8.30;99.90
37518;DHT22;23366;52.498;13.446;2023-02-13T01:03:17;8.40;99.90
37518;DHT22;23366;52.498;13.446;2023-02-13T01:05:44;8.40;99.90
37518;DHT22;23366;52.498;13.446;2023-02-13T01:08:10;8.40;99.90
37518;DHT22;23366;52.498;13.446;2023-02-13T01:10:40;8.30;99.90
37518;DHT22;23366;52.498;13.446;2023-02-13T01:13:07;8.30;99.90
37518;DHT22;23366;52.498;13.446;2023-02-13T01:15:33;8.30;99.90
37518;DHT22;23366;52.498;13.446;2023-02-13T01:17:59;8.30;99.90
37518;DHT22;23366;52.498;13.446;2023-02-13T01:20:26;8.30;99.90
37518;DHT22;23366;52.498;13.446;2023-02-13T01:22:52;8.30;99.90
37518;DHT22;23366;52.498;13.446;2023-02-13T01:25:17;8.30;99.90
37518;DHT22;23366;52.498;13.446;2023-02-13T01:27:43;8.30;99.90
37518;DHT22;23366;52.498;13.446;2023-02-13T01:30:10;8.30;99.90
37518;DHT22;23366;52.498;13.446;2023-02-13T01:32:39;8.30;99.90
37518;DHT22;23366;52.498;13.446;2023-02-13T01:35:06;8.30;99.90
37518;DHT22;23366;52.498;13.446;2023-02-13T01:37:31;8.30;99.90
37518;DHT22;23366;52.498;13.446;2023-02-13T01:39:57;8.30;99.90
37518;DHT22;23366;52.498;13.446;2023-02-13T01:42:28;8.30;99.90
37518;DHT22;23366;52.498;13.446;2023-02-13T01:44:59;8.20;99.90
37518;DHT22;23366;52.498;13.446;2023-02-13T01:47:32;8.20;99.90
37518;DHT22;23366;52.498;13.446;2023-02-13T01:50:39;8.20;99.90
37518;DHT22;23366;52.498;13.446;2023-02-13T01:52:58;8.30;99.90
37518;DHT22;23366;52.498;13.446;2023-02-13T01:55:25;8.20;99.90
37518;DHT22;23366;52.498;13.446;2023-02-13T01:58:03;8.20;99.90
37518;DHT22;23366;52.498;13.446;2023-02-13T02:00:30;8.20;99.90
37518;DHT22;23366;52.498;13.446;2023-02-13T02:03:11;8.20;99.90
37518;DHT22;23366;52.498;13.446;2023-02-13T02:05:38;8.20;99.90
37518;DHT22;23366;52.498;13.446;2023-02-13T02:08:07;8.20;99.90
37518;DHT22;23366;52.498;13.446;2023-02-13T02:10:35;8.20;99.90
37518;DHT22;23366;52.498;13.446;2023-02-13T02:13:08;8.20;99.90
37518;DHT22;23366;52.498;13.446;2023-02-13T02:15:35;8.20;99.90
37518;DHT22;23366;52.498;13.446;2023-02-13T02:18:01;8.20;99.90
37518;DHT22;23366;52.498;13.446;2023-02-13T02:20:39;8.10;99.90
37518;DHT22;23366;52.498;13.446;2023-02-13T02:23:26;8.10;99.90
37518;DHT22;23366;52.498;13.446;2023-02-13T02:39:59;8.10;99.90
37518;DHT22;23366;52.498;13.446;2023-02-13T02:45:09;8.10;99.90
37518;DHT22;23366;52.498;13.446;2023-02-13T02:59:00;8.10;99.90
37518;DHT22;23366;52.498;13.446;2023-02-13T03:01:47;8.10;99.90
37518;DHT22;23366;52.498;13.446;2023-02-13T03:04:39;8.10;99.90
37518;DHT22;23366;52.498;13.446;2023-02-13T03:07:24;8.10;99.90
37518;DHT22;23366;52.498;13.446;2023-02-13T03:09:55;8.10;99.90
37518;DHT22;23366;52.498;13.446;2023-02-13T03:12:53;8.10;99.90
37518;DHT22;23366;52.498;13.446;2023-02-13T03:15:41;8.10;99.90
37518;DHT22;23366;52.498;13.446;2023-02-13T03:18:28;8.10;99.90
37518;DHT22;23366;52.498;13.446;2023-02-13T03:27:26;8.00;99.90
37518;DHT22;23366;52.498;13.446;2023-02-13T03:30:18;8.00;99.90
37518;DHT22;23366;52.498;13.446;2023-02-13T03:32:50;8.00;99.90
37518;DHT22;23366;52.498;13.446;2023-02-13T03:38:19;8.00;99.90
37518;DHT22;23366;52.498;13.446;2023-02-13T03:40:50;8.00;99.90
37518;DHT22;23366;52.498;13.446;2023-02-13T03:43:44;8.00;99.90
37518;DHT22;23366;52.498;13.446;2023-02-13T03:46:12;8.00;99.90
37518;DHT22;23366;52.498;13.446;2023-02-13T03:48:39;8.00;99.90
37518;DHT22;23366;52.498;13.446;2023-02-13T03:51:28;8.00;99.90
37518;DHT22;23366;52.498;13.446;2023-02-13T03:53:59;8.00;99.90
37518;DHT22;23366;52.498;13.446;2023-02-13T03:56:27;8.00;99.90
37518;DHT22;23366;52.498;13.446;2023-02-13T03:59:21;8.00;99.90
37518;DHT22;23366;52.498;13.446;2023-02-13T04:04:25;8.00;99.90
37518;DHT22;23366;52.498;13.446;2023-02-13T04:06:59;8.00;99.90
37518;DHT22;23366;52.498;13.446;2023-02-13T04:09:28;8.00;99.90
37518;DHT22;23366;52.498;13.446;2023-02-13T04:12:12;8.00;99.90
37518;DHT22;23366;52.498;13.446;2023-02-13T04:15:02;8.00;99.90
37518;DHT22;23366;52.498;13.446;2023-02-13T04:17:57;8.00;99.90
37518;DHT22;23366;52.498;13.446;2023-02-13T04:20:27;8.00;99.90
37518;DHT22;23366;52.498;13.446;2023-02-13T04:22:53;8.00;99.90
37518;DHT22;23366;52.498;13.446;2023-02-13T04:25:19;8.00;99.90
37518;DHT22;23366;52.498;13.446;2023-02-13T04:27:45;8.00;99.90
37518;DHT22;23366;52.498;13.446;2023-02-13T04:30:11;8.00;99.90
37518;DHT22;23366;52.498;13.446;2023-02-13T04:32:36;8.00;99.90
37518;DHT22;23366;52.498;13.446;2023-02-13T04:35:02;8.00;99.90
37518;DHT22;23366;52.498;13.446;2023-02-13T04:37:28;8.00;99.90
37518;DHT22;23366;52.498;13.446;2023-02-13T04:39:53;8.00;99.90
37518;DHT22;23366;52.498;13.446;2023-02-13T04:42:19;8.00;99.90
37518;DHT22;23366;52.498;13.446;2023-02-13T04:44:44;8.00;99.90
37518;DHT22;23366;52.498;13.446;2023-02-13T04:47:10;8.00;99.90
37518;DHT22;23366;52.498;13.446;2023-02-13T04:49:35;8.10;99.90
37518;DHT22;23366;52.498;13.446;2023-02-13T04:52:01;8.10;99.90
37518;DHT22;23366;52.498;13.446;2023-02-13T04:54:26;8.10;99.90
37518;DHT22;23366;52.498;13.446;2023-02-13T04:56:52;8.10;99.90
37518;DHT22;23366;52.498;13.446;2023-02-13T04:59:18;8.10;99.90
37518;DHT22;23366;52.498;13.446;2023-02-13T05:01:43;8.00;99.90
37518;DHT22;23366;52.498;13.446;2023-02-13T05:04:09;8.00;99.90
37518;DHT22;23366;52.498;13.446;2023-02-13T05:06:35;8.00;99.90
37518;DHT22;23366;52.498;13.446;2023-02-13T05:09:02;8.00;99.90
37518;DHT22;23366;52.498;13.446;2023-02-13T05:11:28;8.00;99.90
37518;DHT22;23366;52.498;13.446;2023-02-13T05:13:53;8.00;99.90
37518;DHT22;23366;52.498;13.446;2023-02-13T05:16:19;8.00;99.90
37518;DHT22;23366;52.498;13.446;2023-02-13T05:18:44;8.00;99.90
37518;DHT22;23366;52.498;13.446;2023-02-13T05:21:10;8.00;99.90
37518;DHT22;23366;52.498;13.446;2023-02-13T05:23:54;7.90;99.90
37518;DHT22;23366;52.498;13.446;2023-02-13T05:26:20;7.90;99.90
37518;DHT22;23366;52.498;13.446;2023-02-13T05:28:45;7.90;99.90
37518;DHT22;23366;52.498;13.446;2023-02-13T05:31:29;8.00;99.90
37518;DHT22;23366;52.498;13.446;2023-02-13T05:33:55;8.00;99.90
37518;DHT22;23366;52.498;13.446;2023-02-13T05:36:20;8.00;99.90
37518;DHT22;23366;52.498;13.446;2023-02-13T05:38:46;8.00;99.90
37518;DHT22;23366;52.498;13.446;2023-02-13T05:41:12;8.00;99.90
37518;DHT22;23366;52.498;13.446;2023-02-13T05:43:40;8.00;99.90
37518;DHT22;23366;52.498;13.446;2023-02-13T05:46:08;8.00;99.90
37518;DHT22;23366;52.498;13.446;2023-02-13T05:48:34;8.00;99.90
37518;DHT22;23366;52.498;13.446;2023-02-13T05:51:00;8.00;99.90
37518;DHT22;23366;52.498;13.446;2023-02-13T05:53:26;8.00;99.90
37518;DHT22;23366;52.498;13.446;2023-02-13T05:55:52;8.00;99.90
37518;DHT22;23366;52.498;13.446;2023-02-13T05:58:19;8.00;99.90
37518;DHT22;23366;52.498;13.446;2023-02-13T06:00:45;8.00;99.90
37518;DHT22;23366;52.498;13.446;2023-02-13T06:03:14;8.00;99.90
37518;DHT22;23366;52.498;13.446;2023-02-13T06:05:39;8.00;99.90
37518;DHT22;23366;52.498;13.446;2023-02-13T06:08:05;8.10;99.90
37518;DHT22;23366;52.498;13.446;2023-02-13T06:10:31;8.10;99.90
37518;DHT22;23366;52.498;13.446;2023-02-13T06:12:56;8.00;99.90
37518;DHT22;23366;52.498;13.446;2023-02-13T06:15:22;8.00;99.90
37518;DHT22;23366;52.498;13.446;2023-02-13T06:17:47;8.10;99.90
37518;DHT22;23366;52.498;13.446;2023-02-13T06:20:13;8.00;99.90
37518;DHT22;23366;52.498;13.446;2023-02-13T06:22:38;8.10;99.90
37518;DHT22;23366;52.498;13.446;2023-02-13T06:25:04;8.10;99.90
37518;DHT22;23366;52.498;13.446;2023-02-13T06:27:30;8.10;99.90
37518;DHT22;23366;52.498;13.446;2023-02-13T06:29:58;8.10;99.90
37518;DHT22;23366;52.498;13.446;2023-02-13T06:32:24;8.10;99.90
37518;DHT22;23366;52.498;13.446;2023-02-13T06:34:49;8.10;99.90
37518;DHT22;23366;52.498;13.446;2023-02-13T06:37:14;8.10;99.90
37518;DHT22;23366;52.498;13.446;2023-02-13T06:39:40;8.10;99.90
37518;DHT22;23366;52.498;13.446;2023-02-13T06:42:07;8.10;99.90
37518;DHT22;23366;52.498;13.446;2023-02-13T06:44:32;8.10;99.90
37518;DHT22;23366;52.498;13.446;2023-02-13T06:46:57;8.10;99.90
37518;DHT22;23366;52.498;13.446;2023-02-13T06:49:23;8.10;99.90
37518;DHT22;23366;52.498;13.446;2023-02-13T06:51:49;8.10;99.90
37518;DHT22;23366;52.498;13.446;2023-02-13T06:54:14;8.10;99.90
37518;DHT22;23366;52.498;13.446;2023-02-13T06:56:40;8.10;99.90
37518;DHT22;23366;52.498;13.446;2023-02-13T06:59:05;8.10;99.90
37518;DHT22;23366;52.498;13.446;2023-02-13T07:01:31;8.10;99.90
37518;DHT22;23366;52.498;13.446;2023-02-13T07:03:57;8.10;99.90
37518;DHT22;23366;52.498;13.446;2023-02-13T07:06:22;8.10;99.90
37518;DHT22;23366;52.498;13.446;2023-02-13T07:08:48;8.10;99.90
37518;DHT22;23366;52.498;13.446;2023-02-13T07:11:20;8.10;99.90
37518;DHT22;23366;52.498;13.446;2023-02-13T07:13:45;8.10;99.90
37518;DHT22;23366;52.498;13.446;2023-02-13T07:16:11;8.20;99.90
37518;DHT22;23366;52.498;13.446;2023-02-13T07:18:36;8.10;99.90
37518;DHT22;23366;52.498;13.446;2023-02-13T07:21:02;8.10;99.90
37518;DHT22;23366;52.498;13.446;2023-02-13T07:23:28;8.10;99.90
37518;DHT22;23366;52.498;13.446;2023-02-13T07:25:53;8.20;99.90
37518;DHT22;23366;52.498;13.446;2023-02-13T07:28:19;8.20;99.90
37518;DHT22;23366;52.498;13.446;2023-02-13T07:30:44;8.20;99.90
37518;DHT22;23366;52.498;13.446;2023-02-13T07:33:10;8.20;99.90
37518;DHT22;23366;52.498;13.446;2023-02-13T07:35:36;8.20;99.90
37518;DHT22;23366;52.498;13.446;2023-02-13T07:38:03;8.20;99.90
37518;DHT22;23366;52.498;13.446;2023-02-13T07:40:29;8.20;99.90
37518;DHT22;23366;52.498;13.446;2023-02-13T07:42:55;8.20;99.90
37518;DHT22;23366;52.498;13.446;2023-02-13T07:45:24;8.20;99.90
37518;DHT22;23366;52.498;13.446;2023-02-13T07:47:49;8.30;99.90
37518;DHT22;23366;52.498;13.446;2023-02-13T07:50:15;8.30;99.90
37518;DHT22;23366;52.498;13.446;2023-02-13T07:52:40;8.30;99.90
37518;DHT22;23366;52.498;13.446;2023-02-13T07:55:07;8.40;99.90
37518;DHT22;23366;52.498;13.446;2023-02-13T07:57:33;8.30;99.90
37518;DHT22;23366;52.498;13.446;2023-02-13T07:59:58;8.40;99.90
37518;DHT22;23366;52.498;13.446;2023-02-13T08:02:24;8.40;99.90
37518;DHT22;23366;52.498;13.446;2023-02-13T08:04:49;8.40;99.90
37518;DHT22;23366;52.498;13.446;2023-02-13T08:07:16;8.40;99.90
37518;DHT22;23366;52.498;13.446;2023-02-13T08:09:44;8.50;99.90
37518;DHT22;23366;52.498;13.446;2023-02-13T08:12:29;8.50;99.90
37518;DHT22;23366;52.498;13.446;2023-02-13T08:14:54;8.50;99.90
37518;DHT22;23366;52.498;13.446;2023-02-13T08:17:20;8.50;99.90
37518;DHT22;23366;52.498;13.446;2023-02-13T08:19:46;8.60;99.90
37518;DHT22;23366;52.498;13.446;2023-02-13T08:22:11;8.60;99.90
37518;DHT22;23366;52.498;13.446;2023-02-13T08:24:37;8.60;99.90
37518;DHT22;23366;52.498;13.446;2023-02-13T08:27:02;8.60;99.90
37518;DHT22;23366;52.498;13.446;2023-02-13T08:29:28;8.70;99.90
37518;DHT22;23366;52.498;13.446;2023-02-13T08:31:53;8.70;99.90
37518;DHT22;23366;52.498;13.446;2023-02-13T08:34:19;8.70;99.90
37518;DHT22;23366;52.498;13.446;2023-02-13T08:36:44;8.80;99.90
37518;DHT22;23366;52.498;13.446;2023-02-13T08:39:10;8.80;99.90
37518;DHT22;23366;52.498;13.446;2023-02-13T08:41:36;8.80;99.90
37518;DHT22;23366;52.498;13.446;2023-02-13T08:44:01;8.90;99.90
37518;DHT22;23366;52.498;13.446;2023-02-13T08:46:27;8.90;99.90
37518;DHT22;23366;52.498;13.446;2023-02-13T08:48:53;8.90;99.90
37518;DHT22;23366;52.498;13.446;2023-02-13T08:51:19;8.80;99.90
37518;DHT22;23366;52.498;13.446;2023-02-13T08:53:44;8.90;99.90
37518;DHT22;23366;52.498;13.446;2023-02-13T08:56:10;8.90;99.90
37518;DHT22;23366;52.498;13.446;2023-02-13T08:58:35;8.90;99.90
37518;DHT22;23366;52.498;13.446;2023-02-13T09:01:04;9.00;99.90
37518;DHT22;23366;52.498;13.446;2023-02-13T09:03:30;8.90;99.90
37518;DHT22;23366;52.498;13.446;2023-02-13T09:05:58;8.90;99.90
37518;DHT22;23366;52.498;13.446;2023-02-13T09:08:25;9.00;99.90
37518;DHT22;23366;52.498;13.446;2023-02-13T09:10:59;9.00;99.90
37518;DHT22;23366;52.498;13.446;2023-02-13T09:13:29;9.00;99.90
37518;DHT22;23366;52.498;13.446;2023-02-13T09:15:59;9.00;99.90
37518;DHT22;23366;52.498;13.446;2023-02-13T09:18:25;8.90;99.90
37518;DHT22;23366;52.498;13.446;2023-02-13T09:20:57;8.90;99.90
37518;DHT22;23366;52.498;13.446;2023-02-13T09:23:23;8.90;99.90
37518;DHT22;23366;52.498;13.446;2023-02-13T09:25:48;8.90;99.90
37518;DHT22;23366;52.498;13.446;2023-02-13T09:28:13;8.90;99.90
37518;DHT22;23366;52.498;13.446;2023-02-13T09:30:39;8.90;99.90
37518;DHT22;23366;52.498;13.446;2023-02-13T09:33:09;8.90;99.90
37518;DHT22;23366;52.498;13.446;2023-02-13T09:35:36;8.90;99.90
37518;DHT22;23366;52.498;13.446;2023-02-13T09:38:01;8.90;99.90
37518;DHT22;23366;52.498;13.446;2023-02-13T09:40:51;8.90;99.90
37518;DHT22;23366;52.498;13.446;2023-02-13T09:46:27;8.80;99.90
37518;DHT22;23366;52.498;13.446;2023-02-13T09:48:55;8.70;99.90
37518;DHT22;23366;52.498;13.446;2023-02-13T09:51:23;8.70;99.90
37518;DHT22;23366;52.498;13.446;2023-02-13T09:54:01;8.70;99.90
37518;DHT22;23366;52.498;13.446;2023-02-13T09:59:17;8.50;99.90
37518;DHT22;23366;52.498;13.446;2023-02-13T10:01:48;8.50;99.90
37518;DHT22;23366;52.498;13.446;2023-02-13T10:04:58;8.40;99.90
37518;DHT22;23366;52.498;13.446;2023-02-13T10:07:25;8.40;99.90
37518;DHT22;23366;52.498;13.446;2023-02-13T10:10:11;8.40;99.90
37518;DHT22;23366;52.498;13.446;2023-02-13T10:15:30;8.40;99.90
37518;DHT22;23366;52.498;13.446;2023-02-13T10:18:05;8.40;99.90
37518;DHT22;23366;52.498;13.446;2023-02-13T10:20:38;8.50;99.90
37518;DHT22;23366;52.498;13.446;2023-02-13T10:23:29;8.50;99.90
37518;DHT22;23366;52.498;13.446;2023-02-13T10:26:00;8.60;99.90
37518;DHT22;23366;52.498;13.446;2023-02-13T10:31:07;8.70;99.90
37518;DHT22;23366;52.498;13.446;2023-02-13T10:33:40;8.70;99.90
37518;DHT22;23366;52.498;13.446;2023-02-13T10:38:42;8.70;99.90
37518;DHT22;23366;52.498;13.446;2023-02-13T10:41:36;8.70;99.90
37518;DHT22;23366;52.498;13.446;2023-02-13T10:55:42;8.60;99.90
37518;DHT22;23366;52.498;13.446;2023-02-13T11:00:46;8.60;99.90
37518;DHT22;23366;52.498;13.446;2023-02-13T11:03:19;8.60;99.90
37518;DHT22;23366;52.498;13.446;2023-02-13T11:05:45;8.60;99.90
37518;DHT22;23366;52.498;13.446;2023-02-13T11:08:44;8.60;99.90
37518;DHT22;23366;52.498;13.446;2023-02-13T11:11:31;8.60;99.90
37518;DHT22;23366;52.498;13.446;2023-02-13T11:14:12;8.60;99.90
37518;DHT22;23366;52.498;13.446;2023-02-13T11:17:02;8.60;99.90
37518;DHT22;23366;52.498;13.446;2023-02-13T11:19:38;8.60;99.90
37518;DHT22;23366;52.498;13.446;2023-02-13T11:22:08;8.70;99.90
37518;DHT22;23366;52.498;13.446;2023-02-13T11:24:35;8.70;99.90
37518;DHT22;23366;52.498;13.446;2023-02-13T11:27:06;8.80;99.90
37518;DHT22;23366;52.498;13.446;2023-02-13T11:29:54;8.80;99.90
37518;DHT22;23366;52.498;13.446;2023-02-13T11:32:26;8.90;99.90
37518;DHT22;23366;52.498;13.446;2023-02-13T11:34:52;8.90;99.90
37518;DHT22;23366;52.498;13.446;2023-02-13T11:37:25;8.90;99.90
37518;DHT22;23366;52.498;13.446;2023-02-13T11:39:54;9.00;99.90
37518;DHT22;23366;52.498;13.446;2023-02-13T11:42:33;9.10;99.90
37518;DHT22;23366;52.498;13.446;2023-02-13T11:45:13;9.10;99.90
37518;DHT22;23366;52.498;13.446;2023-02-13T11:47:44;9.10;99.90
37518;DHT22;23366;52.498;13.446;2023-02-13T11:50:33;9.10;99.90
37518;DHT22;23366;52.498;13.446;2023-02-13T11:53:01;9.20;99.90
37518;DHT22;23366;52.498;13.446;2023-02-13T11:55:35;9.20;99.90
37518;DHT22;23366;52.498;13.446;2023-02-13T12:00:38;9.20;99.90
37518;DHT22;23366;52.498;13.446;2023-02-13T12:08:33;9.30;99.90
37518;DHT22;23366;52.498;13.446;2023-02-13T12:10:59;9.30;99.90
37518;DHT22;23366;52.498;13.446;2023-02-13T12:13:32;9.30;99.90
37518;DHT22;23366;52.498;13.446;2023-02-13T12:16:09;9.30;99.90
37518;DHT22;23366;52.498;13.446;2023-02-13T12:18:41;9.20;99.90
37518;DHT22;23366;52.498;13.446;2023-02-13T12:29:53;9.40;99.90
37518;DHT22;23366;52.498;13.446;2023-02-13T12:32:41;9.40;99.90
37518;DHT22;23366;52.498;13.446;2023-02-13T12:35:32;9.40;99.90
37518;DHT22;23366;52.498;13.446;2023-02-13T12:38:09;9.40;99.90
37518;DHT22;23366;52.498;13.446;2023-02-13T12:41:02;9.40;99.90
37518;DHT22;23366;52.498;13.446;2023-02-13T12:58:18;9.30;99.90
37518;DHT22;23366;52.498;13.446;2023-02-13T13:03:51;9.20;99.90
37518;DHT22;23366;52.498;13.446;2023-02-13T13:19:54;9.30;99.90
37518;DHT22;23366;52.498;13.446;2023-02-13T13:22:36;9.30;99.90
37518;DHT22;23366;52.498;13.446;2023-02-13T13:28:00;9.10;99.90
37518;DHT22;23366;52.498;13.446;2023-02-13T13:30:34;9.20;99.90
37518;DHT22;23366;52.498;13.446;2023-02-13T13:35:29;9.20;99.90
37518;DHT22;23366;52.498;13.446;2023-02-13T13:38:13;9.20;99.90
37518;DHT22;23366;52.498;13.446;2023-02-13T13:43:26;9.20;99.90
37518;DHT22;23366;52.498;13.446;2023-02-13T13:46:03;9.20;99.90
37518;DHT22;23366;52.498;13.446;2023-02-13T13:51:39;9.20;99.90
37518;DHT22;23366;52.498;13.446;2023-02-13T14:07:40;9.10;99.90
37518;DHT22;23366;52.498;13.446;2023-02-13T14:12:49;9.10;99.90
37518;DHT22;23366;52.498;13.446;2023-02-13T14:20:50;9.00;99.90
37518;DHT22;23366;52.498;13.446;2023-02-13T14:26:27;8.90;99.90
37518;DHT22;23366;52.498;13.446;2023-02-13T14:29:02;8.90;99.90
37518;DHT22;23366;52.498;13.446;2023-02-13T14:31:38;8.90;99.90
37518;DHT22;23366;52.498;13.446;2023-02-13T14:36:41;8.90;99.90
37518;DHT22;23366;52.498;13.446;2023-02-13T14:39:17;8.90;99.90
37518;DHT22;23366;52.498;13.446;2023-02-13T14:44:19;8.90;99.90
37518;DHT22;23366;52.498;13.446;2023-02-13T14:46:47;8.90;99.90
37518;DHT22;23366;52.498;13.446;2023-02-13T14:49:20;8.90;99.90
37518;DHT22;23366;52.498;13.446;2023-02-13T14:51:56;8.90;99.90
37518;DHT22;23366;52.498;13.446;2023-02-13T14:57:10;8.90;99.90
37518;DHT22;23366;52.498;13.446;2023-02-13T14:59:42;8.90;99.90
37518;DHT22;23366;52.498;13.446;2023-02-13T15:02:34;8.80;99.90
37518;DHT22;23366;52.498;13.446;2023-02-13T15:05:31;8.80;99.90
37518;DHT22;23366;52.498;13.446;2023-02-13T15:08:15;8.70;99.90
37518;DHT22;23366;52.498;13.446;2023-02-13T15:10:51;8.80;99.90
37518;DHT22;23366;52.498;13.446;2023-02-13T15:13:34;8.70;99.90
37518;DHT22;23366;52.498;13.446;2023-02-13T15:16:05;8.60;99.90
37518;DHT22;23366;52.498;13.446;2023-02-13T15:18:49;8.60;99.90
37518;DHT22;23366;52.498;13.446;2023-02-13T15:21:21;8.60;99.90
37518;DHT22;23366;52.498;13.446;2023-02-13T15:23:50;8.60;99.90
37518;DHT22;23366;52.498;13.446;2023-02-13T15:26:20;8.60;99.90
37518;DHT22;23366;52.498;13.446;2023-02-13T15:29:03;8.50;99.90
37518;DHT22;23366;52.498;13.446;2023-02-13T15:31:31;8.60;99.90
37518;DHT22;23366;52.498;13.446;2023-02-13T15:34:02;8.50;99.90
37518;DHT22;23366;52.498;13.446;2023-02-13T15:36:38;8.50;99.90
37518;DHT22;23366;52.498;13.446;2023-02-13T15:39:05;8.60;99.90
37518;DHT22;23366;52.498;13.446;2023-02-13T15:41:36;8.50;99.90
37518;DHT22;23366;52.498;13.446;2023-02-13T15:44:02;8.50;99.90
37518;DHT22;23366;52.498;13.446;2023-02-13T15:46:30;8.40;99.90
37518;DHT22;23366;52.498;13.446;2023-02-13T15:49:07;8.50;99.90
37518;DHT22;23366;52.498;13.446;2023-02-13T15:51:36;8.40;99.90
37518;DHT22;23366;52.498;13.446;2023-02-13T15:54:04;8.40;99.90
37518;DHT22;23366;52.498;13.446;2023-02-13T15:56:30;8.40;99.90
37518;DHT22;23366;52.498;13.446;2023-02-13T15:58:58;8.40;99.90
37518;DHT22;23366;52.498;13.446;2023-02-13T16:01:24;8.40;99.90
37518;DHT22;23366;52.498;13.446;2023-02-13T16:04:03;8.30;99.90
37518;DHT22;23366;52.498;13.446;2023-02-13T16:06:29;8.40;99.90
37518;DHT22;23366;52.498;13.446;2023-02-13T16:08:57;8.30;99.90
37518;DHT22;23366;52.498;13.446;2023-02-13T16:11:37;8.30;99.90
37518;DHT22;23366;52.498;13.446;2023-02-13T16:16:59;8.30;99.90
37518;DHT22;23366;52.498;13.446;2023-02-13T16:19:49;8.30;99.90
37518;DHT22;23366;52.498;13.446;2023-02-13T16:24:49;8.20;99.90
37518;DHT22;23366;52.498;13.446;2023-02-13T16:27:25;8.20;99.90
37518;DHT22;23366;52.498;13.446;2023-02-13T16:29:55;8.20;99.90
37518;DHT22;23366;52.498;13.446;2023-02-13T16:32:31;8.20;99.90
37518;DHT22;23366;52.498;13.446;2023-02-13T16:35:29;8.20;99.90
37518;DHT22;23366;52.498;13.446;2023-02-13T16:37:59;8.20;99.90
37518;DHT22;23366;52.498;13.446;2023-02-13T16:40:34;8.20;99.90
37518;DHT22;23366;52.498;13.446;2023-02-13T16:54:22;8.20;99.90
37518;DHT22;23366;52.498;13.446;2023-02-13T16:56:52;8.20;99.90
37518;DHT22;23366;52.498;13.446;2023-02-13T17:02:26;8.10;99.90
37518;DHT22;23366;52.498;13.446;2023-02-13T17:07:44;8.10;99.90
37518;DHT22;23366;52.498;13.446;2023-02-13T17:10:25;8.10;99.90
37518;DHT22;23366;52.498;13.446;2023-02-13T17:12:53;8.10;99.90
37518;DHT22;23366;52.498;13.446;2023-02-13T17:15:24;8.20;99.90
37518;DHT22;23366;52.498;13.446;2023-02-13T17:17:50;8.10;99.90
37518;DHT22;23366;52.498;13.446;2023-02-13T17:20:24;8.20;99.90
37518;DHT22;23366;52.498;13.446;2023-02-13T17:22:52;8.20;99.90
37518;DHT22;23366;52.498;13.446;2023-02-13T17:25:21;8.20;99.90
37518;DHT22;23366;52.498;13.446;2023-02-13T17:27:51;8.20;99.90
37518;DHT22;23366;52.498;13.446;2023-02-13T17:30:20;8.20;99.90
37518;DHT22;23366;52.498;13.446;2023-02-13T17:32:46;8.20;99.90
37518;DHT22;23366;52.498;13.446;2023-02-13T17:35:13;8.20;99.90
37518;DHT22;23366;52.498;13.446;2023-02-13T17:37:40;8.20;99.90
37518;DHT22;23366;52.498;13.446;2023-02-13T17:40:07;8.20;99.90
37518;DHT22;23366;52.498;13.446;2023-02-13T17:42:33;8.10;99.90
37518;DHT22;23366;52.498;13.446;2023-02-13T17:44:59;8.20;99.90
37518;DHT22;23366;52.498;13.446;2023-02-13T17:47:26;8.20;99.90
37518;DHT22;23366;52.498;13.446;2023-02-13T17:49:52;8.10;99.90
37518;DHT22;23366;52.498;13.446;2023-02-13T17:52:20;8.20;99.90
37518;DHT22;23366;52.498;13.446;2023-02-13T17:54:47;8.20;99.90
37518;DHT22;23366;52.498;13.446;2023-02-13T17:57:15;8.10;99.90
37518;DHT22;23366;52.498;13.446;2023-02-13T17:59:41;8.10;99.90
37518;DHT22;23366;52.498;13.446;2023-02-13T18:02:12;8.20;99.90
37518;DHT22;23366;52.498;13.446;2023-02-13T18:04:38;8.20;99.90
37518;DHT22;23366;52.498;13.446;2023-02-13T18:07:04;8.10;99.90
37518;DHT22;23366;52.498;13.446;2023-02-13T18:09:30;8.10;99.90
37518;DHT22;23366;52.498;13.446;2023-02-13T18:11:55;8.00;99.90
37518;DHT22;23366;52.498;13.446;2023-02-13T18:14:21;8.00;99.90
37518;DHT22;23366;52.498;13.446;2023-02-13T18:16:47;8.00;99.90
37518;DHT22;23366;52.498;13.446;2023-02-13T18:19:12;8.00;99.90
37518;DHT22;23366;52.498;13.446;2023-02-13T18:21:39;8.00;99.90
37518;DHT22;23366;52.498;13.446;2023-02-13T18:24:05;8.00;99.90
37518;DHT22;23366;52.498;13.446;2023-02-13T18:26:30;8.00;99.90
37518;DHT22;23366;52.498;13.446;2023-02-13T18:28:56;8.10;99.90
37518;DHT22;23366;52.498;13.446;2023-02-13T18:31:22;8.10;99.90
37518;DHT22;23366;52.498;13.446;2023-02-13T18:33:48;8.00;99.90
37518;DHT22;23366;52.498;13.446;2023-02-13T18:36:13;8.10;99.90
37518;DHT22;23366;52.498;13.446;2023-02-13T18:38:39;8.00;99.90
37518;DHT22;23366;52.498;13.446;2023-02-13T18:41:05;8.00;99.90
37518;DHT22;23366;52.498;13.446;2023-02-13T18:43:30;8.00;99.90
37518;DHT22;23366;52.498;13.446;2023-02-13T18:45:56;8.00;99.90
37518;DHT22;23366;52.498;13.446;2023-02-13T18:48:21;8.00;99.90
37518;DHT22;23366;52.498;13.446;2023-02-13T18:50:47;7.90;99.90
37518;DHT22;23366;52.498;13.446;2023-02-13T18:53:13;8.00;99.90